Time;durP1;ratioP1;P1;durP2;ratioP2;P2;SDS_P1;SDS_P2;PMS_P1;PMS_P2;Temp;Humidity;BMP_temperature;BMP_pressure;BME280_temperature;BME280_humidity;BME280_pressure;Samples;Min_cycle;Max_cycle;Signal;HPM_P1;HPM_P2
2021/08/04 00:00:57;;;;;;;3.08;1.70;;;13.80;99.90;;;;;;5073999;28;20040;-82
2021/08/04 00:03:23;;;;;;;2.00;1.80;;;13.80;99.90;;;;;;5021694;28;20056;-81
2021/08/04 00:05:48;;;;;;;2.30;1.65;;;13.70;99.90;;;;;;5057235;28;20063;-82
2021/08/04 00:08:14;;;;;;;1.95;1.55;;;13.70;99.90;;;;;;5058432;28;20055;-82
2021/08/04 00:10:40;;;;;;;2.80;1.60;;;13.70;99.90;;;;;;5058023;28;20061;-81
2021/08/04 00:13:05;;;;;;;2.20;1.67;;;13.70;99.90;;;;;;5024495;28;20047;-81
2021/08/04 00:15:31;;;;;;;3.83;2.10;;;13.70;99.90;;;;;;5073851;28;20028;-81
2021/08/04 00:17:57;;;;;;;2.95;1.80;;;13.70;99.90;;;;;;5036063;28;20059;-82
2021/08/04 00:20:23;;;;;;;2.05;1.65;;;13.70;99.90;;;;;;5093538;28;20028;-81
2021/08/04 00:22:48;;;;;;;2.60;1.83;;;13.80;99.90;;;;;;5077229;28;20032;-81
2021/08/04 00:25:14;;;;;;;2.10;1.80;;;13.80;99.90;;;;;;5095502;28;20035;-82
2021/08/04 00:27:40;;;;;;;2.25;1.40;;;13.80;99.90;;;;;;5062641;28;20037;-81
2021/08/04 00:30:06;;;;;;;1.60;1.42;;;13.80;99.90;;;;;;5079767;28;20040;-81
2021/08/04 00:32:32;;;;;;;2.15;1.70;;;13.80;99.90;;;;;;5088612;28;20047;-81
2021/08/04 00:34:58;;;;;;;2.85;2.05;;;13.80;99.90;;;;;;5045820;28;20029;-82
2021/08/04 00:37:24;;;;;;;1.92;1.73;;;13.80;99.90;;;;;;5074311;28;20058;-81
2021/08/04 00:39:49;;;;;;;1.98;1.63;;;13.80;99.90;;;;;;5076042;28;20537;-81
2021/08/04 00:42:19;;;;;;;2.20;1.58;;;13.80;99.90;;;;;;5060510;28;20506;-81
2021/08/04 00:44:47;;;;;;;2.55;1.83;;;13.80;99.90;;;;;;5077127;28;20081;-81
2021/08/04 00:47:14;;;;;;;1.90;1.58;;;13.70;99.90;;;;;;5076666;28;20020;-81
2021/08/04 00:49:40;;;;;;;2.33;1.67;;;13.70;99.90;;;;;;5077964;28;20063;-81
2021/08/04 00:52:07;;;;;;;2.15;1.80;;;13.70;99.90;;;;;;5057020;28;20029;-81
2021/08/04 00:54:32;;;;;;;2.03;1.52;;;13.70;99.90;;;;;;5058908;28;20033;-81
2021/08/04 00:56:58;;;;;;;2.05;1.73;;;13.80;99.90;;;;;;5058051;28;20035;-82
2021/08/04 00:59:24;;;;;;;3.15;1.70;;;13.80;99.90;;;;;;5031016;28;20051;-81
2021/08/04 01:01:56;;;;;;;2.60;1.90;;;13.80;99.90;;;;;;5075222;28;20036;-81
2021/08/04 01:04:23;;;;;;;2.58;1.90;;;13.70;99.90;;;;;;5056586;28;20029;-81
2021/08/04 01:07:20;;;;;;;4.28;1.52;;;13.70;99.90;;;;;;5058062;28;20048;-81
2021/08/04 01:09:51;;;;;;;2.50;1.70;;;13.70;99.90;;;;;;5072374;28;20028;-81
2021/08/04 01:12:30;;;;;;;1.80;1.65;;;13.70;99.90;;;;;;5073267;28;20063;-81
2021/08/04 01:15:03;;;;;;;1.63;1.48;;;13.70;99.90;;;;;;5056966;28;20032;-81
2021/08/04 01:17:30;;;;;;;1.77;1.50;;;13.70;99.90;;;;;;5069101;28;20051;-81
2021/08/04 01:20:27;;;;;;;2.25;1.60;;;13.70;99.90;;;;;;5061701;28;20020;-81
2021/08/04 01:23:24;;;;;;;2.15;1.70;;;13.70;99.90;;;;;;5048673;28;20048;-81
2021/08/04 01:25:55;;;;;;;1.80;1.70;;;13.70;99.90;;;;;;5063374;28;20024;-82
2021/08/04 01:28:38;;;;;;;2.65;1.77;;;13.70;99.90;;;;;;5079407;28;20596;-81
2021/08/04 01:31:10;;;;;;;1.75;1.65;;;13.70;99.90;;;;;;5059673;28;20032;-81
2021/08/04 01:33:39;;;;;;;2.13;1.85;;;13.70;99.90;;;;;;5060110;28;20025;-81
2021/08/04 01:36:07;;;;;;;1.60;1.48;;;13.70;99.90;;;;;;5063090;28;20040;-81
2021/08/04 01:38:33;;;;;;;2.53;2.08;;;13.70;99.90;;;;;;5052207;28;20554;-82
2021/08/04 01:41:00;;;;;;;2.00;1.80;;;13.70;99.90;;;;;;5063860;28;20024;-82
2021/08/04 01:43:27;;;;;;;1.92;1.70;;;13.70;99.90;;;;;;5027158;28;20036;-81
2021/08/04 01:45:57;;;;;;;3.22;1.63;;;13.70;99.90;;;;;;5088917;28;20035;-82
2021/08/04 01:48:24;;;;;;;2.92;2.50;;;13.70;99.90;;;;;;5090568;28;20032;-81
2021/08/04 01:50:56;;;;;;;3.20;2.38;;;13.70;99.90;;;;;;5065062;28;20122;-81
2021/08/04 01:53:24;;;;;;;2.33;1.92;;;13.70;99.90;;;;;;5058147;28;20037;-82
2021/08/04 01:55:50;;;;;;;3.20;2.22;;;13.70;99.90;;;;;;5061193;28;20119;-82
2021/08/04 01:58:16;;;;;;;2.13;1.92;;;13.70;99.90;;;;;;5094611;28;20021;-82
2021/08/04 02:00:42;;;;;;;6.47;2.53;;;13.80;99.90;;;;;;5077736;28;20039;-81
2021/08/04 02:03:08;;;;;;;2.58;2.22;;;13.80;99.90;;;;;;5089769;28;20031;-81
2021/08/04 02:05:33;;;;;;;2.60;2.28;;;13.70;99.90;;;;;;5065380;28;20032;-81
2021/08/04 02:08:21;;;;;;;3.80;2.55;;;13.70;99.90;;;;;;5071144;28;20039;-81
2021/08/04 02:10:56;;;;;;;2.92;2.33;;;13.70;99.90;;;;;;5079383;28;20074;-81
2021/08/04 02:13:32;;;;;;;2.60;2.38;;;13.70;99.90;;;;;;5060505;28;20021;-82
2021/08/04 02:16:21;;;;;;;3.97;2.50;;;13.60;99.90;;;;;;5077867;28;20033;-81
2021/08/04 02:18:56;;;;;;;3.75;3.10;;;13.60;99.90;;;;;;5084114;28;20059;-82
2021/08/04 02:21:23;;;;;;;;;;;13.60;99.90;;;;;;5068945;28;20061;-82
2021/08/04 02:23:50;;;;;;;3.45;2.42;;;13.60;99.90;;;;;;5062557;28;19914;-82
2021/08/04 02:26:18;;;;;;;3.30;2.88;;;13.60;99.90;;;;;;5071273;23;20045;-79
2021/08/04 02:28:48;;;;;;;4.47;2.45;;;13.60;99.90;;;;;;5050719;28;20055;-79
2021/08/04 02:31:16;;;;;;;2.65;2.40;;;13.60;99.90;;;;;;5054854;28;20036;-80
2021/08/04 02:33:43;;;;;;;4.10;2.70;;;13.60;99.90;;;;;;5046240;28;20037;-79
2021/08/04 02:36:10;;;;;;;2.75;2.55;;;13.60;99.90;;;;;;5052647;28;20037;-79
2021/08/04 02:38:36;;;;;;;5.28;2.50;;;13.60;99.90;;;;;;5056382;28;20028;-80
2021/08/04 02:41:02;;;;;;;3.15;2.60;;;13.60;99.90;;;;;;5031084;28;20075;-77
2021/08/04 02:43:30;;;;;;;3.28;2.63;;;13.60;99.90;;;;;;5056207;28;20025;-79
2021/08/04 02:45:58;;;;;;;10.02;3.08;;;13.60;99.90;;;;;;5057644;28;20033;-79
2021/08/04 02:48:25;;;;;;;4.57;2.40;;;13.60;99.90;;;;;;5039980;28;20089;-81
2021/08/04 02:51:18;;;;;;;2.45;2.22;;;13.60;99.90;;;;;;5036294;28;20037;-79
2021/08/04 02:53:52;;;;;;;3.00;1.98;;;13.60;99.90;;;;;;5056384;28;20045;-79
2021/08/04 02:56:18;;;;;;;3.60;2.33;;;13.50;99.90;;;;;;5056745;28;20033;-79
2021/08/04 02:58:44;;;;;;;2.80;2.45;;;13.60;99.90;;;;;;5050151;28;20090;-78
2021/08/04 03:01:14;;;;;;;2.28;2.08;;;13.60;99.90;;;;;;5038040;28;20243;-78
2021/08/04 03:03:40;;;;;;;3.55;2.53;;;13.60;99.90;;;;;;5034724;28;20036;-80
2021/08/04 03:06:06;;;;;;;2.60;2.10;;;13.60;99.90;;;;;;5051298;28;20033;-80
2021/08/04 03:08:32;;;;;;;3.40;2.50;;;13.60;99.90;;;;;;5035333;28;20055;-83
2021/08/04 03:10:57;;;;;;;5.35;2.70;;;13.60;99.90;;;;;;5034357;28;20033;-80
2021/08/04 03:13:24;;;;;;;2.72;2.15;;;13.60;99.90;;;;;;5034570;28;20114;-82
2021/08/04 03:15:49;;;;;;;3.92;2.25;;;13.60;99.90;;;;;;5025573;28;20502;-80
2021/08/04 03:18:15;;;;;;;2.92;2.63;;;13.60;99.90;;;;;;5032734;28;20026;-80
2021/08/04 03:20:41;;;;;;;3.42;2.75;;;13.60;99.90;;;;;;5043761;28;20029;-81
2021/08/04 03:23:07;;;;;;;2.80;2.10;;;13.60;99.90;;;;;;5031797;28;20029;-81
2021/08/04 03:25:32;;;;;;;2.47;2.28;;;13.60;99.90;;;;;;5042331;28;20511;-80
2021/08/04 03:27:58;;;;;;;2.53;2.33;;;13.60;99.90;;;;;;5052659;28;20588;-82
2021/08/04 03:30:24;;;;;;;3.65;2.53;;;13.60;99.90;;;;;;5050657;28;20435;-80
2021/08/04 03:32:50;;;;;;;4.10;2.50;;;13.60;99.90;;;;;;5051087;28;20513;-81
2021/08/04 03:35:15;;;;;;;2.72;2.15;;;13.60;99.90;;;;;;5034618;28;20090;-80
2021/08/04 03:37:43;;;;;;;4.97;2.90;;;13.60;99.90;;;;;;5045642;28;20037;-81
2021/08/04 03:40:09;;;;;;;3.17;2.33;;;13.60;99.90;;;;;;5047439;28;20108;-81
2021/08/04 03:42:35;;;;;;;3.17;2.40;;;13.60;99.90;;;;;;5035436;28;20033;-81
2021/08/04 03:45:01;;;;;;;2.97;2.60;;;13.60;99.90;;;;;;5014881;28;20034;-80
2021/08/04 03:47:26;;;;;;;4.22;2.65;;;13.60;99.90;;;;;;5032553;28;20499;-81
2021/08/04 03:49:52;;;;;;;2.67;2.28;;;13.70;99.90;;;;;;5012995;28;20496;-80
2021/08/04 03:52:18;;;;;;;3.38;2.45;;;13.70;99.90;;;;;;5031578;28;20072;-80
2021/08/04 03:54:45;;;;;;;3.78;2.28;;;13.70;99.90;;;;;;5030687;28;20042;-79
2021/08/04 03:57:11;;;;;;;2.83;2.28;;;13.70;99.90;;;;;;5042449;28;20078;-80
2021/08/04 03:59:37;;;;;;;2.65;2.00;;;13.70;99.90;;;;;;5050168;28;20414;-80
2021/08/04 04:02:03;;;;;;;2.50;2.30;;;13.70;99.90;;;;;;5050092;28;20498;-81
2021/08/04 04:04:29;;;;;;;4.00;2.30;;;13.70;99.90;;;;;;5049554;28;20036;-80
2021/08/04 04:06:55;;;;;;;3.30;2.40;;;13.80;99.90;;;;;;5051904;28;20044;-81
2021/08/04 04:09:20;;;;;;;3.28;2.83;;;13.70;99.90;;;;;;5050234;28;20033;-81
2021/08/04 04:11:46;;;;;;;2.83;2.53;;;13.70;99.90;;;;;;5050478;28;20033;-82
2021/08/04 04:14:12;;;;;;;3.55;2.67;;;13.70;99.90;;;;;;5033497;28;20170;-81
2021/08/04 04:16:37;;;;;;;3.83;2.47;;;13.70;99.90;;;;;;4997812;28;20037;-79
2021/08/04 04:19:03;;;;;;;2.47;2.28;;;13.70;99.90;;;;;;5030296;28;20515;-80
2021/08/04 04:21:30;;;;;;;2.83;2.22;;;13.70;99.90;;;;;;5033587;28;20033;-80
2021/08/04 04:23:56;;;;;;;2.80;2.47;;;13.70;99.90;;;;;;5036288;28;20044;-79
2021/08/04 04:26:22;;;;;;;6.85;2.75;;;13.80;99.90;;;;;;5021962;28;20052;-82
2021/08/04 04:28:47;;;;;;;2.45;2.15;;;13.70;99.90;;;;;;5032873;28;20123;-79
2021/08/04 04:31:13;;;;;;;3.65;2.20;;;13.80;99.90;;;;;;5019468;28;20040;-79
2021/08/04 04:33:39;;;;;;;3.03;2.30;;;13.70;99.90;;;;;;5052839;28;20039;-81
2021/08/04 04:36:04;;;;;;;3.30;2.42;;;13.80;99.90;;;;;;5046870;28;20613;-80
2021/08/04 04:38:30;;;;;;;3.28;2.60;;;13.80;99.90;;;;;;5043399;28;20040;-79
2021/08/04 04:40:56;;;;;;;2.65;2.45;;;13.80;99.90;;;;;;5033458;28;20036;-81
2021/08/04 04:43:21;;;;;;;2.78;2.30;;;13.90;99.90;;;;;;5047099;28;20088;-79
2021/08/04 04:45:48;;;;;;;3.03;2.35;;;13.90;99.90;;;;;;5053556;28;20074;-79
2021/08/04 04:48:13;;;;;;;2.80;2.55;;;13.90;99.90;;;;;;5049355;28;20044;-79
2021/08/04 04:50:39;;;;;;;3.72;2.83;;;13.90;99.90;;;;;;5051515;28;20064;-79
2021/08/04 04:53:05;;;;;;;5.07;2.50;;;13.90;99.90;;;;;;5018659;28;20044;-79
2021/08/04 04:55:31;;;;;;;3.10;2.63;;;13.90;99.90;;;;;;5035736;28;20083;-78
2021/08/04 04:57:56;;;;;;;3.35;2.83;;;13.90;99.90;;;;;;5051594;28;20032;-79
2021/08/04 05:00:22;;;;;;;4.85;3.53;;;13.90;99.90;;;;;;5000734;28;20033;-78
2021/08/04 05:02:48;;;;;;;3.10;2.80;;;13.90;99.90;;;;;;5041178;28;20029;-78
2021/08/04 05:05:15;;;;;;;4.90;3.33;;;13.90;99.90;;;;;;5052651;28;20486;-78
2021/08/04 05:07:41;;;;;;;4.45;3.83;;;13.90;99.90;;;;;;5058954;28;20025;-78
2021/08/04 05:10:07;;;;;;;5.68;3.60;;;14.00;99.90;;;;;;5007340;28;20044;-78
2021/08/04 05:12:32;;;;;;;4.85;3.45;;;14.00;99.90;;;;;;5040569;28;20064;-79
2021/08/04 05:14:58;;;;;;;3.75;3.30;;;14.10;99.90;;;;;;5053072;28;20055;-77
2021/08/04 05:17:25;;;;;;;3.95;3.15;;;14.10;99.90;;;;;;5037640;28;20063;-77
2021/08/04 05:19:51;;;;;;;4.65;3.42;;;14.10;99.90;;;;;;5059753;28;20513;-79
2021/08/04 05:22:17;;;;;;;4.22;3.15;;;14.10;99.90;;;;;;5038052;28;20055;-76
2021/08/04 05:24:43;;;;;;;3.20;2.80;;;14.10;99.90;;;;;;5054938;28;20071;-77
2021/08/04 05:27:09;;;;;;;3.70;3.28;;;14.10;99.90;;;;;;5058028;28;20418;-79
2021/08/04 05:29:35;;;;;;;4.65;3.60;;;14.10;99.90;;;;;;5034727;28;20033;-77
2021/08/04 05:32:02;;;;;;;4.50;3.75;;;14.10;99.90;;;;;;5044625;28;20028;-79
2021/08/04 05:34:29;;;;;;;4.60;3.88;;;14.20;99.90;;;;;;5053604;28;20030;-79
2021/08/04 05:36:55;;;;;;;5.32;3.97;;;14.20;99.90;;;;;;5039457;28;20118;-79
2021/08/04 05:39:21;;;;;;;4.32;3.92;;;14.20;99.90;;;;;;5011277;28;20029;-79
2021/08/04 05:41:47;;;;;;;6.85;4.32;;;14.20;99.90;;;;;;5010203;28;20052;-79
2021/08/04 05:44:13;;;;;;;5.45;4.68;;;14.20;99.90;;;;;;5052880;28;20053;-76
2021/08/04 05:46:39;;;;;;;5.70;4.45;;;14.20;99.90;;;;;;5024963;28;20040;-80
2021/08/04 05:49:05;;;;;;;4.90;4.40;;;14.20;99.90;;;;;;5033575;28;20061;-79
2021/08/04 05:51:31;;;;;;;7.40;4.90;;;14.20;99.90;;;;;;5015335;28;20384;-79
2021/08/04 05:53:56;;;;;;;5.88;4.40;;;14.20;99.90;;;;;;5039227;28;20573;-79
2021/08/04 05:56:22;;;;;;;5.47;4.68;;;14.30;99.90;;;;;;5048341;28;20530;-79
2021/08/04 05:58:48;;;;;;;7.82;5.07;;;14.20;99.90;;;;;;5038876;28;20029;-79
2021/08/04 06:01:14;;;;;;;6.78;5.05;;;14.30;99.90;;;;;;5055460;28;20514;-78
2021/08/04 06:03:39;;;;;;;6.65;5.20;;;14.40;99.90;;;;;;5054967;28;20054;-80
2021/08/04 06:06:05;;;;;;;6.88;5.40;;;14.50;99.90;;;;;;5054262;28;20411;-78
2021/08/04 06:08:30;;;;;;;8.52;4.80;;;14.60;99.90;;;;;;5037338;28;20029;-79
2021/08/04 06:10:57;;;;;;;6.40;4.90;;;14.70;99.90;;;;;;5033123;28;20101;-78
2021/08/04 06:13:23;;;;;;;4.90;4.38;;;14.80;99.90;;;;;;5020326;28;20037;-79
2021/08/04 06:15:50;;;;;;;6.05;4.75;;;14.80;99.90;;;;;;5041588;28;20055;-79
2021/08/04 06:18:16;;;;;;;10.43;5.10;;;14.80;99.90;;;;;;5040943;28;20121;-78
2021/08/04 06:20:42;;;;;;;6.25;4.93;;;14.90;99.90;;;;;;5031922;28;20029;-78
2021/08/04 06:23:07;;;;;;;5.45;4.57;;;14.80;99.90;;;;;;5054969;28;20044;-78
2021/08/04 06:25:33;;;;;;;9.80;5.90;;;14.90;99.90;;;;;;5039275;28;20037;-80
2021/08/04 06:27:59;;;;;;;5.95;5.07;;;15.00;99.90;;;;;;5036600;28;20044;-79
2021/08/04 06:30:24;;;;;;;6.43;5.07;;;15.00;99.90;;;;;;5021216;28;20038;-79
2021/08/04 06:32:50;;;;;;;6.20;4.82;;;15.10;99.90;;;;;;5053231;28;20025;-79
2021/08/04 06:35:16;;;;;;;6.57;4.75;;;15.20;99.90;;;;;;5049071;28;20029;-79
2021/08/04 06:37:42;;;;;;;5.85;4.97;;;15.20;99.90;;;;;;5045355;28;20029;-80
2021/08/04 06:40:08;;;;;;;6.22;5.13;;;15.30;99.90;;;;;;5044972;28;20033;-79
2021/08/04 06:42:34;;;;;;;5.70;4.88;;;15.50;99.90;;;;;;5048037;28;20056;-78
2021/08/04 06:44:59;;;;;;;6.05;5.30;;;15.60;99.90;;;;;;5036876;28;20404;-78
2021/08/04 06:47:25;;;;;;;7.47;5.40;;;15.70;99.90;;;;;;5047789;28;20709;-79
2021/08/04 06:49:51;;;;;;;5.13;4.40;;;15.80;99.90;;;;;;5018778;28;20033;-79
2021/08/04 06:52:17;;;;;;;4.63;4.13;;;16.00;99.90;;;;;;5017518;28;20087;-79
2021/08/04 06:54:42;;;;;;;4.95;4.53;;;16.00;99.90;;;;;;5052109;28;20035;-80
2021/08/04 06:57:08;;;;;;;5.72;4.65;;;16.10;99.90;;;;;;5036538;28;20059;-79
2021/08/04 06:59:34;;;;;;;5.68;4.25;;;16.10;99.90;;;;;;5034038;28;20097;-80
2021/08/04 07:02:01;;;;;;;7.30;4.93;;;16.20;99.90;;;;;;5040057;28;20526;-78
2021/08/04 07:04:29;;;;;;;6.00;5.25;;;16.20;99.90;;;;;;5050843;28;20032;-80
2021/08/04 07:06:57;;;;;;;5.28;4.40;;;16.20;99.90;;;;;;5050047;28;20056;-79
2021/08/04 07:09:23;;;;;;;4.97;4.30;;;16.10;99.90;;;;;;5025603;28;20040;-80
2021/08/04 07:11:49;;;;;;;5.00;4.45;;;16.10;99.90;;;;;;5052736;28;20738;-80
2021/08/04 07:14:16;;;;;;;5.88;5.22;;;16.10;99.90;;;;;;5054975;28;20033;-81
2021/08/04 07:16:46;;;;;;;6.22;4.28;;;16.20;99.90;;;;;;5049307;28;20025;-79
2021/08/04 07:19:12;;;;;;;5.75;5.03;;;16.20;99.90;;;;;;5037833;28;20036;-80
2021/08/04 07:21:39;;;;;;;6.22;5.32;;;16.30;99.90;;;;;;5034029;28;20021;-80
2021/08/04 07:24:06;;;;;;;6.45;4.63;;;16.30;99.90;;;;;;5033845;28;20037;-80
2021/08/04 07:26:32;;;;;;;4.80;4.20;;;16.40;99.90;;;;;;5051510;28;20314;-81
2021/08/04 07:28:57;;;;;;;7.22;4.60;;;16.60;99.90;;;;;;5000864;28;20037;-81
2021/08/04 07:31:24;;;;;;;4.55;4.15;;;16.70;99.90;;;;;;5043543;28;20099;-80
2021/08/04 07:33:51;;;;;;;8.23;4.53;;;16.80;99.90;;;;;;5048107;28;20033;-82
2021/08/04 07:36:17;;;;;;;5.75;5.00;;;17.00;99.90;;;;;;5002669;28;20128;-81
2021/08/04 07:38:42;;;;;;;4.32;3.92;;;17.00;99.90;;;;;;5012489;28;20021;-81
2021/08/04 07:41:08;;;;;;;5.35;4.00;;;17.10;99.90;;;;;;5015533;28;20395;-83
2021/08/04 07:43:34;;;;;;;3.95;3.58;;;17.20;99.90;;;;;;5031851;28;20033;-81
2021/08/04 07:46:00;;;;;;;4.07;3.67;;;17.30;99.90;;;;;;5050105;28;20037;-81
2021/08/04 07:48:28;;;;;;;4.30;3.90;;;17.40;99.90;;;;;;5031881;28;20032;-82
2021/08/04 07:50:55;;;;;;;4.07;3.67;;;17.50;99.90;;;;;;5019423;28;20059;-81
2021/08/04 07:53:21;;;;;;;3.92;3.53;;;17.50;99.90;;;;;;5025437;28;20041;-81
2021/08/04 07:55:46;;;;;;;4.10;3.80;;;17.40;99.90;;;;;;5030321;28;20033;-82
2021/08/04 07:58:12;;;;;;;3.97;3.40;;;17.40;99.90;;;;;;5021241;28;20158;-83
2021/08/04 08:00:38;;;;;;;5.22;3.83;;;17.30;99.90;;;;;;5010300;28;20032;-81
2021/08/04 08:03:04;;;;;;;4.25;3.85;;;17.30;99.90;;;;;;5030142;28;20032;-82
2021/08/04 08:05:29;;;;;;;4.55;3.95;;;17.20;99.90;;;;;;5051580;28;20037;-83
2021/08/04 08:07:55;;;;;;;5.25;3.70;;;17.10;99.90;;;;;;5002668;28;20087;-83
2021/08/04 08:10:31;;;;;;;4.03;3.72;;;17.10;99.90;;;;;;5046889;28;20041;-82
2021/08/04 08:12:57;;;;;;;4.07;3.67;;;17.30;99.90;;;;;;5029970;28;20029;-83
2021/08/04 08:15:23;;;;;;;3.28;2.97;;;17.40;99.90;;;;;;5037468;28;20061;-83
2021/08/04 08:17:49;;;;;;;3.50;3.20;;;17.60;99.90;;;;;;5051601;28;20071;-84
2021/08/04 08:20:16;;;;;;;3.75;3.40;;;17.70;99.90;;;;;;5035883;28;20479;-83
2021/08/04 08:22:41;;;;;;;3.38;3.08;;;17.90;99.90;;;;;;5046001;28;20059;-83
2021/08/04 08:25:11;;;;;;;3.50;2.85;;;18.10;99.90;;;;;;5019729;28;20036;-82
2021/08/04 08:27:38;;;;;;;3.10;2.80;;;18.30;99.90;;;;;;5017336;28;20041;-82
2021/08/04 08:30:05;;;;;;;3.05;2.83;;;18.50;99.90;;;;;;5048766;28;20525;-82
2021/08/04 08:32:30;;;;;;;2.72;2.53;;;18.80;99.90;;;;;;5040927;28;20556;-81
2021/08/04 08:34:56;;;;;;;3.03;2.72;;;19.10;99.90;;;;;;5032260;28;20057;-82
2021/08/04 08:37:22;;;;;;;2.45;2.25;;;19.30;99.90;;;;;;5030194;28;20925;-82
2021/08/04 08:39:48;;;;;;;2.92;2.53;;;19.30;99.90;;;;;;5027607;28;20037;-83
2021/08/04 08:42:16;;;;;;;3.75;2.45;;;19.20;99.90;;;;;;5032444;28;20037;-82
2021/08/04 08:44:42;;;;;;;3.25;2.75;;;19.00;99.90;;;;;;5044856;28;20109;-82
2021/08/04 08:47:09;;;;;;;2.47;2.30;;;18.90;99.90;;;;;;5026215;28;20067;-82
2021/08/04 08:49:37;;;;;;;2.33;2.15;;;18.80;99.90;;;;;;5036580;28;20032;-82
2021/08/04 08:52:03;;;;;;;2.47;2.28;;;18.70;99.90;;;;;;5029303;28;20056;-81
2021/08/04 08:54:29;;;;;;;2.30;2.10;;;18.60;99.90;;;;;;5043842;28;20040;-82
2021/08/04 08:56:55;;;;;;;2.60;2.40;;;18.60;99.90;;;;;;5015115;28;20041;-81
2021/08/04 08:59:21;;;;;;;3.63;2.13;;;18.70;99.90;;;;;;5052389;28;20110;-81
2021/08/04 09:01:47;;;;;;;2.30;2.20;;;18.70;99.90;;;;;;5037196;28;20026;-79
2021/08/04 09:04:17;;;;;;;2.45;2.22;;;18.60;99.90;;;;;;5024323;28;20033;-81
2021/08/04 09:06:46;;;;;;;5.65;2.47;;;18.50;99.90;;;;;;5054241;28;20036;-80
2021/08/04 09:09:19;;;;;;;4.60;1.85;;;18.50;99.90;;;;;;5050784;28;20132;-80
2021/08/04 09:11:51;;;;;;;2.58;2.20;;;18.40;99.90;;;;;;5037162;28;20029;-81
2021/08/04 09:14:24;;;;;;;2.45;2.22;;;18.50;99.90;;;;;;5028921;28;20041;-83
2021/08/04 09:17:06;;;;;;;2.42;2.22;;;18.50;99.90;;;;;;5049929;28;20033;-82
2021/08/04 09:19:34;;;;;;;2.40;2.08;;;18.50;99.90;;;;;;5037253;28;20472;-82
2021/08/04 09:22:14;;;;;;;2.35;2.13;;;18.60;99.90;;;;;;5053176;28;20029;-83
2021/08/04 09:25:03;;;;;;;3.42;1.90;;;18.70;99.90;;;;;;5039191;28;20033;-82
2021/08/04 09:27:50;;;;;;;2.35;1.90;;;18.80;99.90;;;;;;5029267;28;20116;-82
2021/08/04 09:30:29;;;;;;;2.35;2.20;;;18.90;99.90;;;;;;5033773;28;20108;-82
2021/08/04 09:33:17;;;;;;;2.47;2.28;;;18.90;99.90;;;;;;5035771;28;20045;-82
2021/08/04 09:35:51;;;;;;;2.85;2.58;;;19.10;99.90;;;;;;5043046;28;20063;-82
2021/08/04 09:38:19;;;;;;;2.65;2.10;;;19.20;99.90;;;;;;5050532;28;20033;-82
2021/08/04 09:41:07;;;;;;;2.30;2.10;;;19.30;99.90;;;;;;5050466;28;20044;-81
2021/08/04 09:43:33;;;;;;;2.00;1.90;;;19.30;99.90;;;;;;5036103;28;20091;-82
2021/08/04 09:45:59;;;;;;;1.90;1.80;;;19.50;99.90;;;;;;5033341;28;20033;-81
2021/08/04 09:48:26;;;;;;;2.17;2.00;;;19.60;99.90;;;;;;5035285;28;20040;-81
2021/08/04 09:50:57;;;;;;;2.40;1.63;;;19.60;99.90;;;;;;5037935;28;20079;-80
2021/08/04 09:53:32;;;;;;;2.28;2.08;;;19.80;99.90;;;;;;5053846;28;20045;-82
2021/08/04 09:56:14;;;;;;;3.15;2.17;;;19.80;99.90;;;;;;5052561;28;20041;-81
2021/08/04 09:58:45;;;;;;;2.13;1.95;;;20.00;99.90;;;;;;5048640;28;20426;-81
2021/08/04 10:01:13;;;;;;;2.28;2.08;;;20.10;99.90;;;;;;5052660;28;20086;-82
2021/08/04 10:04:07;;;;;;;2.30;2.10;;;20.20;99.90;;;;;;5044198;28;20454;-81
2021/08/04 10:06:39;;;;;;;1.95;1.85;;;20.30;99.90;;;;;;5033171;28;20080;-83
2021/08/04 10:09:06;;;;;;;2.22;2.08;;;20.20;99.90;;;;;;5033486;28;20677;-82
2021/08/04 10:11:32;;;;;;;2.10;1.90;;;20.30;99.90;;;;;;5004172;28;20082;-82
2021/08/04 10:13:59;;;;;;;1.90;1.70;;;19.90;99.90;;;;;;5053997;28;20128;-83
2021/08/04 10:16:33;;;;;;;2.03;1.80;;;19.80;99.90;;;;;;5029779;28;20083;-82
2021/08/04 10:19:01;;;;;;;2.05;1.83;;;19.70;99.90;;;;;;5018733;28;20438;-83
2021/08/04 10:21:27;;;;;;;1.88;1.52;;;19.60;99.90;;;;;;5003307;28;20036;-83
2021/08/04 10:23:54;;;;;;;1.85;1.75;;;19.50;99.90;;;;;;5036189;28;20557;-83
2021/08/04 10:26:21;;;;;;;2.25;2.00;;;19.50;99.90;;;;;;5034076;28;20037;-82
2021/08/04 10:28:52;;;;;;;2.13;1.92;;;19.40;99.90;;;;;;5045929;28;20398;-83
2021/08/04 10:31:18;;;;;;;2.38;1.95;;;19.30;99.90;;;;;;5042135;28;20092;-82
2021/08/04 10:33:44;;;;;;;2.75;1.80;;;19.30;99.90;;;;;;5010374;28;20042;-82
2021/08/04 10:36:16;;;;;;;3.58;2.03;;;19.60;99.90;;;;;;5050324;28;20040;-83
2021/08/04 10:38:51;;;;;;;2.00;1.77;;;19.80;99.90;;;;;;5050472;28;20094;-82
2021/08/04 10:41:18;;;;;;;;;;;19.90;99.90;;;;;;5035396;28;20087;-82
2021/08/04 10:43:48;;;;;;;2.08;1.88;;;20.10;99.90;;;;;;5034744;28;19913;-82
2021/08/04 10:46:29;;;;;;;1.42;1.33;;;19.80;99.90;;;;;;5049927;28;20036;-82
2021/08/04 10:49:05;;;;;;;2.58;1.80;;;19.70;99.90;;;;;;5050292;28;20123;-82
2021/08/04 10:51:37;;;;;;;;;;;19.90;99.90;;;;;;5053755;28;20037;-82
2021/08/04 10:54:04;;;;;;;3.55;1.83;;;20.20;99.90;;;;;;5035853;28;19916;-80
2021/08/04 10:56:50;;;;;;;1.77;1.67;;;20.40;99.90;;;;;;5042775;28;20515;-80
2021/08/04 10:59:24;;;;;;;1.58;1.48;;;20.60;99.90;;;;;;5046591;28;20135;-82
2021/08/04 11:01:53;;;;;;;1.60;1.50;;;20.70;99.90;;;;;;5032036;28;20447;-81
2021/08/04 11:04:28;;;;;;;1.38;1.13;;;20.90;99.90;;;;;;5042408;28;20037;-81
2021/08/04 11:07:09;;;;;;;2.20;1.53;;;21.00;99.90;;;;;;5045549;28;20037;-80
2021/08/04 11:09:37;;;;;;;1.83;1.40;;;21.20;99.90;;;;;;5048817;28;20285;-80
2021/08/04 11:12:05;;;;;;;1.55;1.30;;;21.10;99.90;;;;;;5032085;28;20553;-81
2021/08/04 11:14:47;;;;;;;1.48;1.27;;;21.10;99.90;;;;;;5036901;28;20554;-81
2021/08/04 11:17:53;;;;;;;2.28;1.10;;;21.00;99.90;;;;;;5037467;28;20458;-80
2021/08/04 11:20:19;;;;;;;1.20;1.20;;;20.70;99.90;;;;;;5043701;28;20029;-81
2021/08/04 11:22:50;;;;;;;1.20;1.10;;;20.60;99.90;;;;;;5033997;28;20103;-81
2021/08/04 11:25:25;;;;;;;1.95;1.35;;;20.50;99.90;;;;;;5057242;28;20032;-81
2021/08/04 11:27:53;;;;;;;1.42;1.33;;;20.50;99.90;;;;;;5035268;28;20060;-80
2021/08/04 11:30:30;;;;;;;1.20;1.10;;;20.40;99.90;;;;;;5038071;28;20059;-79
2021/08/04 11:33:17;;;;;;;1.30;1.20;;;20.40;99.90;;;;;;5041784;28;20061;-81
2021/08/04 11:35:44;;;;;;;1.90;1.38;;;20.30;99.90;;;;;;5036550;28;20036;-80
2021/08/04 11:38:10;;;;;;;1.55;1.40;;;20.20;99.90;;;;;;5055839;28;20078;-81
2021/08/04 11:40:35;;;;;;;1.50;1.40;;;20.10;99.90;;;;;;5047292;28;20029;-80
2021/08/04 11:43:01;;;;;;;1.45;1.30;;;20.10;99.90;;;;;;5049887;28;20512;-81
2021/08/04 11:45:28;;;;;;;1.73;1.40;;;20.20;99.90;;;;;;5048313;28;20025;-79
2021/08/04 11:47:54;;;;;;;1.42;1.33;;;20.30;99.90;;;;;;5039745;28;20066;-79
2021/08/04 11:50:20;;;;;;;1.35;1.20;;;20.40;99.90;;;;;;5019025;28;20041;-80
2021/08/04 11:52:45;;;;;;;1.25;1.15;;;20.40;99.90;;;;;;5021753;28;20033;-81
2021/08/04 11:55:13;;;;;;;1.80;1.58;;;20.50;99.90;;;;;;5048606;28;20115;-81
2021/08/04 11:57:46;;;;;;;1.50;1.40;;;20.50;99.90;;;;;;5023261;28;20060;-81
2021/08/04 12:00:23;;;;;;;1.60;1.50;;;20.60;99.90;;;;;;5052804;28;20033;-79
2021/08/04 12:02:52;;;;;;;1.50;1.38;;;20.70;99.90;;;;;;5037757;28;20063;-79
2021/08/04 12:05:18;;;;;;;1.30;1.20;;;20.70;99.90;;;;;;5028557;28;20033;-80
2021/08/04 12:07:44;;;;;;;1.35;1.20;;;20.70;99.90;;;;;;5037294;28;20090;-80
2021/08/04 12:10:15;;;;;;;2.10;1.20;;;20.70;99.90;;;;;;5074262;28;20116;-81
2021/08/04 12:12:43;;;;;;;2.88;1.42;;;20.70;99.90;;;;;;5042737;28;20033;-80
2021/08/04 12:15:15;;;;;;;1.38;1.27;;;20.70;99.90;;;;;;5042533;28;20045;-80
2021/08/04 12:17:41;;;;;;;1.63;1.35;;;20.80;99.90;;;;;;5045753;28;20399;-80
2021/08/04 12:20:14;;;;;;;1.20;1.10;;;20.70;99.90;;;;;;5060319;28;20029;-81
2021/08/04 12:22:41;;;;;;;1.27;1.17;;;20.70;99.90;;;;;;5022609;28;20036;-80
2021/08/04 12:25:07;;;;;;;1.38;1.23;;;20.90;99.90;;;;;;5056362;28;20037;-81
2021/08/04 12:27:41;;;;;;;1.58;1.45;;;20.90;99.90;;;;;;5054321;28;20032;-80
2021/08/04 12:30:07;;;;;;;1.35;1.20;;;20.80;99.90;;;;;;5053693;28;20487;-81
2021/08/04 12:32:46;;;;;;;1.90;1.02;;;20.70;99.90;;;;;;5059733;28;20033;-80
2021/08/04 12:35:15;;;;;;;1.58;1.38;;;20.60;99.90;;;;;;5059300;28;20485;-80
2021/08/04 12:37:41;;;;;;;1.70;1.40;;;20.40;99.90;;;;;;5045980;28;20025;-80
2021/08/04 12:40:14;;;;;;;2.15;1.42;;;20.20;99.90;;;;;;5055953;28;20034;-80
2021/08/04 12:42:40;;;;;;;1.35;1.20;;;20.10;99.90;;;;;;5058895;28;20029;-78
2021/08/04 12:45:19;;;;;;;1.42;1.33;;;19.90;99.90;;;;;;5021683;28;20035;-80
2021/08/04 12:47:54;;;;;;;1.70;1.60;;;19.80;99.90;;;;;;5055575;28;20033;-80
2021/08/04 12:50:21;;;;;;;2.08;1.60;;;19.60;99.90;;;;;;5022354;28;20400;-79
2021/08/04 12:52:47;;;;;;;2.00;1.73;;;19.40;99.90;;;;;;5049447;28;20029;-79
2021/08/04 12:55:16;;;;;;;2.03;1.70;;;19.20;99.90;;;;;;5051437;28;20050;-79